Stellarton, Canada
Current Conditions -  °F | °C
As of 10:13 AM on Thursday 18 Dec 2014 (Local Time) from CYYG Reporting Station
Drizzle Drizzle  
Wind Chill: 36°   Ceiling: 500
Heat Index: 43°   Visibility: 2mi
Dew Point: 41°   Wind: 13mph
Humidity: 93%   Direction: 140°SE
Pressure: 29.36"   Gusts: NA
Location:  45.57°N, 62.65°W
Report Text: CYYG 181413Z 14011KT 2SM -DZ BR OVC005 06/05 A2936 RMK FG2SF6 SLP942
Loading
Personal Weather Stations






























Interactive Weather Map New forecast layout! Learn more

10-Day Weather Forecast

Advertisements
Track Severe Weather on mobile